createdAt,value
2022-12-16T00:01:19.933Z,14.92
2022-12-16T00:03:51.797Z,14.94
2022-12-16T00:06:21.265Z,14.92
2022-12-16T00:08:49.981Z,14.90
2022-12-16T00:11:20.460Z,14.89
2022-12-16T00:13:49.396Z,14.88
2022-12-16T00:16:20.199Z,14.86
2022-12-16T00:18:49.550Z,14.85
2022-12-16T00:21:20.921Z,14.84
2022-12-16T00:23:49.779Z,14.80
2022-12-16T00:26:18.180Z,14.79
2022-12-16T00:28:46.953Z,14.77
2022-12-16T00:31:16.219Z,14.73
2022-12-16T00:33:45.801Z,14.74
2022-12-16T00:36:14.290Z,14.73
2022-12-16T00:38:43.101Z,14.71
2022-12-16T00:41:11.580Z,14.70
2022-12-16T00:43:40.672Z,14.67
2022-12-16T00:46:09.271Z,14.64
2022-12-16T00:48:39.201Z,14.64
2022-12-16T00:51:07.650Z,14.58
2022-12-16T00:53:36.992Z,14.60
2022-12-16T00:56:08.057Z,14.56
2022-12-16T00:58:37.771Z,14.57
2022-12-16T01:01:08.353Z,14.53
2022-12-16T01:03:37.792Z,14.54
2022-12-16T01:06:15.326Z,14.54
2022-12-16T01:08:51.231Z,14.53
2022-12-16T01:11:20.823Z,14.52
2022-12-16T01:13:52.768Z,14.50
2022-12-16T01:16:23.778Z,14.50
2022-12-16T01:18:53.670Z,14.50
2022-12-16T01:21:23.960Z,14.48
2022-12-16T01:23:53.048Z,14.42
2022-12-16T01:26:23.659Z,14.47
2022-12-16T01:28:52.550Z,14.46
2022-12-16T01:31:21.350Z,14.44
2022-12-16T01:33:51.351Z,14.39
2022-12-16T01:36:20.240Z,14.41
2022-12-16T01:38:49.101Z,14.41
2022-12-16T01:41:17.723Z,14.42
2022-12-16T01:43:46.707Z,14.41
2022-12-16T01:46:15.022Z,14.43
2022-12-16T01:48:59.590Z,14.34
2022-12-16T01:51:41.282Z,14.37
2022-12-16T01:57:24.881Z,14.34
2022-12-16T01:59:55.220Z,14.31
2022-12-16T02:02:24.205Z,14.34
2022-12-16T02:05:11.891Z,14.30
2022-12-16T02:07:40.361Z,14.30
2022-12-16T02:13:59.549Z,14.26
2022-12-16T02:16:52.565Z,14.24
2022-12-16T02:19:35.112Z,14.28
2022-12-16T02:22:35.761Z,14.22
2022-12-16T02:25:40.842Z,14.25
2022-12-16T02:32:25.092Z,14.19
2022-12-16T02:35:26.153Z,14.22
2022-12-16T02:38:23.604Z,14.16
2022-12-16T02:41:18.281Z,14.20
2022-12-16T02:46:59.420Z,14.16
2022-12-16T02:49:28.740Z,14.18
2022-12-16T02:51:58.291Z,14.13
2022-12-16T02:54:28.382Z,14.16
2022-12-16T02:57:06.474Z,14.14
2022-12-16T03:00:08.399Z,14.12
2022-12-16T03:03:02.438Z,14.12
2022-12-16T03:05:48.368Z,14.11
2022-12-16T03:08:46.000Z,14.11
2022-12-16T03:11:15.853Z,14.07
2022-12-16T03:13:50.443Z,14.06
2022-12-16T03:16:22.482Z,14.06
2022-12-16T03:22:00.964Z,14.03
2022-12-16T03:24:29.672Z,14.05
2022-12-16T03:27:46.411Z,14.01
2022-12-16T03:30:18.282Z,14.01
2022-12-16T03:33:08.090Z,14.01
2022-12-16T03:36:20.473Z,13.96
2022-12-16T03:38:50.029Z,13.96
2022-12-16T03:41:18.960Z,14.00
2022-12-16T03:43:48.541Z,13.97
2022-12-16T03:46:17.518Z,13.97
2022-12-16T03:48:55.451Z,13.96
2022-12-16T03:54:28.953Z,13.92
2022-12-16T03:56:57.662Z,13.99
2022-12-16T03:59:26.221Z,14.05
2022-12-16T04:01:55.470Z,14.11
2022-12-16T04:04:24.579Z,14.17
2022-12-16T04:07:13.278Z,14.24
2022-12-16T04:09:41.799Z,14.37
2022-12-16T04:12:29.305Z,14.48
2022-12-16T04:15:16.222Z,14.58
2022-12-16T04:18:03.624Z,14.61
2022-12-16T04:20:52.774Z,14.65
2022-12-16T04:23:44.005Z,14.65
2022-12-16T04:26:27.593Z,14.65
2022-12-16T04:28:56.332Z,14.63
2022-12-16T04:31:25.129Z,14.61
2022-12-16T04:34:12.555Z,14.62
2022-12-16T04:36:59.663Z,14.64
2022-12-16T04:39:47.116Z,14.62
2022-12-16T04:45:58.246Z,14.76
2022-12-16T04:48:45.642Z,14.78
2022-12-16T04:51:32.464Z,14.88
2022-12-16T04:54:19.941Z,14.94
2022-12-16T04:57:06.627Z,15.08
2022-12-16T05:00:01.153Z,15.14
2022-12-16T05:02:48.177Z,15.25
2022-12-16T05:05:37.225Z,15.36
2022-12-16T05:08:24.597Z,15.44
2022-12-16T05:11:11.733Z,15.49
2022-12-16T05:13:58.563Z,15.54
2022-12-16T05:16:45.833Z,15.60
2022-12-16T05:19:32.858Z,15.74
2022-12-16T05:22:21.484Z,15.81
2022-12-16T05:25:08.413Z,15.91
2022-12-16T05:27:55.892Z,15.92
2022-12-16T05:34:06.333Z,16.06
2022-12-16T05:36:53.934Z,16.11
2022-12-16T05:39:41.253Z,16.21
2022-12-16T05:42:28.473Z,16.27
2022-12-16T05:45:15.412Z,16.23
2022-12-16T05:48:03.375Z,16.38
2022-12-16T05:50:50.204Z,16.45
2022-12-16T05:53:37.356Z,16.48
2022-12-16T05:56:24.737Z,16.50
2022-12-16T05:59:12.068Z,16.50
2022-12-16T06:01:58.860Z,16.61
2022-12-16T06:04:46.402Z,16.67
2022-12-16T06:07:33.122Z,16.72
2022-12-16T06:10:20.536Z,16.78
2022-12-16T06:13:07.148Z,16.76
2022-12-16T06:15:54.401Z,16.71
2022-12-16T06:18:41.561Z,16.70
2022-12-16T06:21:28.662Z,16.69
2022-12-16T06:24:15.401Z,16.58
2022-12-16T06:27:03.463Z,16.53
2022-12-16T06:29:50.405Z,16.41
2022-12-16T06:32:37.622Z,16.42
2022-12-16T06:35:25.011Z,16.43
2022-12-16T06:38:12.004Z,16.37
2022-12-16T06:40:58.876Z,16.27
2022-12-16T06:43:46.339Z,16.23
2022-12-16T06:46:33.251Z,16.21
2022-12-16T06:49:21.614Z,16.15
2022-12-16T06:52:08.561Z,16.06
2022-12-16T06:54:56.076Z,16.06
2022-12-16T06:57:43.028Z,16.03
2022-12-16T07:00:31.542Z,15.94
2022-12-16T07:03:18.481Z,15.90
2022-12-16T07:06:06.020Z,15.87
2022-12-16T07:08:53.633Z,15.82
2022-12-16T07:11:41.028Z,15.78
2022-12-16T07:14:28.608Z,15.73
2022-12-16T07:17:17.518Z,15.71
2022-12-16T07:20:05.098Z,15.68
2022-12-16T07:23:00.991Z,15.62
2022-12-16T07:25:51.736Z,15.56
2022-12-16T07:28:39.096Z,15.56
2022-12-16T07:31:26.453Z,15.55
2022-12-16T07:34:15.065Z,15.48
2022-12-16T07:37:02.324Z,15.43
2022-12-16T07:39:54.908Z,15.39
2022-12-16T07:42:42.733Z,15.36
2022-12-16T07:45:30.232Z,15.30
2022-12-16T07:48:17.558Z,15.28
2022-12-16T07:51:04.566Z,15.23
2022-12-16T07:53:51.324Z,15.22
2022-12-16T07:56:38.957Z,15.17
2022-12-16T07:59:25.709Z,15.15
2022-12-16T08:02:14.037Z,15.07
2022-12-16T08:05:01.099Z,15.01
2022-12-16T08:07:48.304Z,15.04
2022-12-16T08:10:35.158Z,15.02
2022-12-16T08:13:32.259Z,15.01
2022-12-16T08:16:19.272Z,14.97
2022-12-16T08:19:10.949Z,14.97
2022-12-16T08:21:58.148Z,14.95
2022-12-16T08:24:51.596Z,14.91
2022-12-16T08:27:41.058Z,14.89
2022-12-16T08:30:29.408Z,14.88
2022-12-16T08:33:19.703Z,14.84
2022-12-16T08:36:18.479Z,14.79
2022-12-16T08:39:05.247Z,14.78
2022-12-16T08:41:52.488Z,14.76
2022-12-16T08:44:39.509Z,14.72
2022-12-16T08:47:26.801Z,14.70
2022-12-16T08:50:13.559Z,14.69
2022-12-16T08:53:02.000Z,14.66
2022-12-16T08:55:48.909Z,14.63
2022-12-16T08:58:37.197Z,14.61
2022-12-16T09:01:24.314Z,14.58
2022-12-16T09:04:11.676Z,14.57
2022-12-16T09:06:58.998Z,14.57
2022-12-16T09:09:46.487Z,14.55
2022-12-16T09:12:33.509Z,14.53
2022-12-16T09:15:20.663Z,14.51
2022-12-16T09:18:15.532Z,14.49
2022-12-16T09:21:04.009Z,14.47
2022-12-16T09:23:51.197Z,14.45
2022-12-16T09:26:38.967Z,14.41
2022-12-16T09:29:25.878Z,14.40
2022-12-16T09:32:13.043Z,14.39
2022-12-16T09:34:59.839Z,14.39
2022-12-16T09:37:46.922Z,14.37
2022-12-16T09:40:35.186Z,14.32
2022-12-16T09:43:45.487Z,14.33
2022-12-16T09:47:25.778Z,14.33
2022-12-16T09:50:14.381Z,14.30
2022-12-16T09:53:07.590Z,14.30
2022-12-16T09:56:01.895Z,14.28
2022-12-16T09:58:54.378Z,14.26
2022-12-16T10:01:42.840Z,14.27
2022-12-16T10:04:30.130Z,14.26
2022-12-16T10:07:18.549Z,14.21
2022-12-16T10:10:39.360Z,14.25
2022-12-16T10:13:56.329Z,14.25
2022-12-16T10:17:10.750Z,14.24
2022-12-16T10:20:15.532Z,14.23
2022-12-16T10:23:14.399Z,14.20
2022-12-16T10:26:27.161Z,14.21
2022-12-16T10:29:45.802Z,14.19
2022-12-16T10:33:00.158Z,14.20
2022-12-16T10:35:52.287Z,14.19
2022-12-16T10:38:59.031Z,14.22
2022-12-16T10:41:55.130Z,14.25
2022-12-16T10:45:03.238Z,14.32
2022-12-16T10:47:50.210Z,14.44
2022-12-16T10:50:37.627Z,14.54
2022-12-16T10:53:35.772Z,14.65
2022-12-16T10:57:02.712Z,14.74
2022-12-16T10:59:57.991Z,14.83
2022-12-16T11:02:47.098Z,14.96
2022-12-16T11:05:52.058Z,15.07
2022-12-16T11:09:00.738Z,15.29
2022-12-16T11:11:49.151Z,15.39
2022-12-16T11:15:27.542Z,15.44
2022-12-16T11:18:22.315Z,15.51
2022-12-16T11:21:36.075Z,15.64
2022-12-16T11:24:29.062Z,15.71
2022-12-16T11:27:22.306Z,15.69
2022-12-16T11:30:33.120Z,15.80
2022-12-16T11:33:40.445Z,15.87
2022-12-16T11:36:40.938Z,16.09
2022-12-16T11:39:34.437Z,16.06
2022-12-16T11:42:21.778Z,16.16
2022-12-16T11:45:14.416Z,16.14
2022-12-16T11:48:20.903Z,16.17
2022-12-16T11:51:11.657Z,16.24
2022-12-16T11:54:06.816Z,16.46
2022-12-16T11:56:57.319Z,16.51
2022-12-16T11:59:50.476Z,16.56
2022-12-16T12:03:01.146Z,16.67
2022-12-16T12:06:16.558Z,16.73
2022-12-16T12:09:07.086Z,16.83
2022-12-16T12:12:05.780Z,16.77
2022-12-16T12:15:01.344Z,16.82
2022-12-16T12:18:09.843Z,16.91
2022-12-16T12:21:12.905Z,17.05
2022-12-16T12:24:41.697Z,17.09
2022-12-16T12:27:37.325Z,17.08
2022-12-16T12:30:35.167Z,17.07
2022-12-16T12:33:34.844Z,16.98
2022-12-16T12:36:25.140Z,16.88
2022-12-16T12:39:47.448Z,16.81
2022-12-16T12:42:34.448Z,16.71
2022-12-16T12:45:47.415Z,16.61
2022-12-16T12:49:00.738Z,16.59
2022-12-16T12:51:51.137Z,16.56
2022-12-16T12:55:07.885Z,16.52
2022-12-16T12:57:57.156Z,16.44
2022-12-16T13:00:44.967Z,16.47
2022-12-16T13:03:50.381Z,16.33
2022-12-16T13:06:37.657Z,16.28
2022-12-16T13:09:52.206Z,16.21
2022-12-16T13:12:57.017Z,16.16
2022-12-16T13:15:57.939Z,16.11
2022-12-16T13:18:49.901Z,16.06
2022-12-16T13:21:56.733Z,16.00
2022-12-16T13:25:00.032Z,15.95
2022-12-16T13:27:48.482Z,15.87
2022-12-16T13:30:37.169Z,15.86
2022-12-16T13:33:44.168Z,15.81
2022-12-16T13:36:32.269Z,15.75
2022-12-16T13:39:42.967Z,15.72
2022-12-16T13:43:01.178Z,15.64
2022-12-16T13:45:57.613Z,15.60
2022-12-16T13:49:05.038Z,15.55
2022-12-16T13:51:58.247Z,15.49
2022-12-16T13:54:50.879Z,15.46
2022-12-16T13:57:40.035Z,15.44
2022-12-16T14:00:37.424Z,15.40
2022-12-16T14:03:31.492Z,15.37
2022-12-16T14:06:19.070Z,15.32
2022-12-16T14:09:07.472Z,15.29
2022-12-16T14:12:30.463Z,15.27
2022-12-16T14:15:26.381Z,15.23
2022-12-16T14:18:23.617Z,15.19
2022-12-16T14:21:14.879Z,15.16
2022-12-16T14:24:12.961Z,15.14
2022-12-16T14:27:01.747Z,15.10
2022-12-16T14:29:50.603Z,15.07
2022-12-16T14:32:46.916Z,15.05
2022-12-16T14:35:39.206Z,15.03
2022-12-16T14:38:47.668Z,15.01
2022-12-16T14:41:43.048Z,14.98
2022-12-16T14:44:42.520Z,14.97
2022-12-16T14:47:38.260Z,14.97
2022-12-16T14:50:52.483Z,14.94
2022-12-16T14:53:41.190Z,14.91
2022-12-16T14:56:33.888Z,14.90
2022-12-16T14:59:38.047Z,14.86
2022-12-16T15:02:52.232Z,14.84
2022-12-16T15:05:39.802Z,14.80
2022-12-16T15:08:30.651Z,14.79
2022-12-16T15:11:17.940Z,14.76
2022-12-16T15:14:06.288Z,14.76
2022-12-16T15:16:54.004Z,14.73
2022-12-16T15:19:41.931Z,14.71
2022-12-16T15:22:37.961Z,14.70
2022-12-16T15:25:25.732Z,14.67
2022-12-16T15:28:14.287Z,14.65
2022-12-16T15:31:04.006Z,14.63
2022-12-16T15:33:54.298Z,14.58
2022-12-16T15:36:50.589Z,14.60
2022-12-16T15:39:43.062Z,14.59
2022-12-16T15:42:56.583Z,14.56
2022-12-16T15:45:49.259Z,14.54
2022-12-16T15:48:44.928Z,14.51
2022-12-16T15:52:08.285Z,14.47
2022-12-16T15:55:10.676Z,14.48
2022-12-16T15:57:58.969Z,14.46
2022-12-16T16:00:50.444Z,14.46
2022-12-16T16:03:46.734Z,14.44
2022-12-16T16:06:45.295Z,14.46
2022-12-16T16:09:47.545Z,14.50
2022-12-16T16:12:37.063Z,14.54
2022-12-16T16:15:25.628Z,14.65
2022-12-16T16:18:14.986Z,14.80
2022-12-16T16:21:02.374Z,14.90
2022-12-16T16:23:49.763Z,14.94
2022-12-16T16:26:37.897Z,15.09
2022-12-16T16:29:25.426Z,15.23
2022-12-16T16:32:12.883Z,15.34
2022-12-16T16:35:01.452Z,15.44
2022-12-16T16:37:48.663Z,15.54
2022-12-16T16:41:12.355Z,15.56
2022-12-16T16:43:59.493Z,15.60
2022-12-16T16:46:57.993Z,15.64
2022-12-16T16:49:53.165Z,15.78
2022-12-16T16:52:41.838Z,15.91
2022-12-16T16:55:39.564Z,15.96
2022-12-16T16:58:33.096Z,16.15
2022-12-16T17:01:20.247Z,16.10
2022-12-16T17:04:07.870Z,16.28
2022-12-16T17:06:56.070Z,16.19
2022-12-16T17:09:43.724Z,16.23
2022-12-16T17:12:41.368Z,16.42
2022-12-16T17:15:38.240Z,16.46
2022-12-16T17:18:25.900Z,16.51
2022-12-16T17:21:13.820Z,16.53
2022-12-16T17:24:00.893Z,16.54
2022-12-16T17:26:47.978Z,16.65
2022-12-16T17:29:42.363Z,16.77
2022-12-16T17:32:30.125Z,16.71
2022-12-16T17:35:17.123Z,16.85
2022-12-16T17:38:04.328Z,17.07
2022-12-16T17:40:51.230Z,17.06
2022-12-16T17:43:39.087Z,17.20
2022-12-16T17:46:29.180Z,17.21
2022-12-16T17:49:18.232Z,17.11
2022-12-16T17:52:05.467Z,17.16
2022-12-16T17:54:53.693Z,17.29
2022-12-16T17:57:41.086Z,17.27
2022-12-16T18:00:29.018Z,17.31
2022-12-16T18:03:16.374Z,17.36
2022-12-16T18:06:04.743Z,17.47
2022-12-16T18:08:52.005Z,17.56
2022-12-16T18:11:39.564Z,17.62
2022-12-16T18:14:27.064Z,17.62
2022-12-16T18:17:16.164Z,17.71
2022-12-16T18:20:03.624Z,17.67
2022-12-16T18:22:51.929Z,17.93
2022-12-16T18:25:39.214Z,17.91
2022-12-16T18:28:27.783Z,17.88
2022-12-16T18:31:18.153Z,18.00
2022-12-16T18:34:05.866Z,18.00
2022-12-16T18:36:53.090Z,17.94
2022-12-16T18:39:40.633Z,17.84
2022-12-16T18:42:29.843Z,17.75
2022-12-16T18:45:17.385Z,17.69
2022-12-16T18:48:04.773Z,17.59
2022-12-16T18:50:53.052Z,17.46
2022-12-16T18:53:43.586Z,17.43
2022-12-16T18:56:32.039Z,17.42
2022-12-16T18:59:19.362Z,17.34
2022-12-16T19:02:07.012Z,17.31
2022-12-16T19:04:54.386Z,17.24
2022-12-16T19:07:41.808Z,17.10
2022-12-16T19:10:29.075Z,17.09
2022-12-16T19:13:16.953Z,16.97
2022-12-16T19:16:16.749Z,16.95
2022-12-16T19:19:04.712Z,16.93
2022-12-16T19:21:56.512Z,16.94
2022-12-16T19:24:45.647Z,17.05
2022-12-16T19:27:32.988Z,17.09
2022-12-16T19:30:20.802Z,17.22
2022-12-16T19:33:09.217Z,17.20
2022-12-16T19:35:57.164Z,17.34
2022-12-16T19:38:44.380Z,17.39
2022-12-16T19:41:35.883Z,17.45
2022-12-16T19:44:23.755Z,17.51
2022-12-16T19:47:11.101Z,17.52
2022-12-16T19:49:58.566Z,17.47
2022-12-16T19:52:48.074Z,17.47
2022-12-16T19:55:35.336Z,17.44
2022-12-16T19:58:22.955Z,17.38
2022-12-16T20:01:10.361Z,17.27
2022-12-16T20:03:57.928Z,17.22
2022-12-16T20:06:45.264Z,17.20
2022-12-16T20:09:33.399Z,17.12
2022-12-16T20:12:20.752Z,17.11
2022-12-16T20:15:08.388Z,17.07
2022-12-16T20:17:58.472Z,17.03
2022-12-16T20:20:46.143Z,17.03
2022-12-16T20:23:33.133Z,17.00
2022-12-16T20:26:20.982Z,17.12
2022-12-16T20:29:08.105Z,17.14
2022-12-16T20:31:55.937Z,17.16
2022-12-16T20:34:44.780Z,17.29
2022-12-16T20:37:32.204Z,17.28
2022-12-16T20:40:19.219Z,17.41
2022-12-16T20:43:06.573Z,17.41
2022-12-16T20:45:56.434Z,17.53
2022-12-16T20:48:44.417Z,17.53
2022-12-16T20:51:31.497Z,17.61
2022-12-16T20:54:18.897Z,17.58
2022-12-16T20:57:12.396Z,17.61
2022-12-16T21:00:17.954Z,17.56
2022-12-16T21:03:06.022Z,17.54
2022-12-16T21:05:56.028Z,17.49
2022-12-16T21:08:43.300Z,17.37
2022-12-16T21:11:31.211Z,17.36
2022-12-16T21:14:20.270Z,17.34
2022-12-16T21:17:08.317Z,17.33
2022-12-16T21:19:56.141Z,17.27
2022-12-16T21:22:43.647Z,17.23
2022-12-16T21:25:30.988Z,17.22
2022-12-16T21:28:18.837Z,17.22
2022-12-16T21:31:05.893Z,17.20
2022-12-16T21:33:53.357Z,17.27
2022-12-16T21:36:43.072Z,17.34
2022-12-16T21:39:30.690Z,17.43
2022-12-16T21:42:17.883Z,17.51
2022-12-16T21:45:05.477Z,17.55
2022-12-16T21:47:55.919Z,17.59
2022-12-16T21:50:43.901Z,17.71
2022-12-16T21:53:31.189Z,17.79
2022-12-16T21:56:18.721Z,17.91
2022-12-16T21:59:06.005Z,17.81
2022-12-16T22:01:53.803Z,17.89
2022-12-16T22:04:44.182Z,17.86
2022-12-16T22:07:31.607Z,17.85
2022-12-16T22:10:18.867Z,17.82
2022-12-16T22:13:06.727Z,17.74
2022-12-16T22:15:58.115Z,17.73
2022-12-16T22:18:48.648Z,17.65
2022-12-16T22:21:35.699Z,17.61
2022-12-16T22:24:23.154Z,17.56
2022-12-16T22:27:10.488Z,17.54
2022-12-16T22:29:58.529Z,17.47
2022-12-16T22:32:46.371Z,17.41
2022-12-16T22:35:34.553Z,17.34
2022-12-16T22:38:21.919Z,17.29
2022-12-16T22:41:16.210Z,17.25
2022-12-16T22:44:04.476Z,17.20
2022-12-16T22:46:56.082Z,17.11
2022-12-16T22:49:43.364Z,17.03
2022-12-16T22:52:32.120Z,16.94
2022-12-16T22:55:18.940Z,16.89
2022-12-16T22:58:06.356Z,16.83
2022-12-16T23:00:53.439Z,16.73
2022-12-16T23:03:44.327Z,16.68
2022-12-16T23:06:31.891Z,16.65
2022-12-16T23:09:19.320Z,16.60
2022-12-16T23:12:06.479Z,16.56
2022-12-16T23:14:56.662Z,16.50
2022-12-16T23:17:44.107Z,16.46
2022-12-16T23:20:31.912Z,16.43
2022-12-16T23:23:19.646Z,16.37
2022-12-16T23:26:19.767Z,16.31
2022-12-16T23:29:15.647Z,16.27
2022-12-16T23:32:03.257Z,16.25
2022-12-16T23:34:50.588Z,16.23
2022-12-16T23:37:37.974Z,16.17
2022-12-16T23:40:25.559Z,16.15
2022-12-16T23:43:13.766Z,16.13
2022-12-16T23:46:02.873Z,16.11
2022-12-16T23:48:50.125Z,16.08
2022-12-16T23:51:37.382Z,16.04
2022-12-16T23:54:25.948Z,16.01
2022-12-16T23:57:13.198Z,15.97
